createdAt,value
2023-04-15T00:03:36.421Z,7.34
2023-04-15T00:08:41.943Z,7.32
2023-04-15T00:13:47.368Z,7.35
2023-04-15T00:18:52.604Z,7.33
2023-04-15T00:23:58.073Z,7.31
2023-04-15T00:29:03.322Z,7.30
2023-04-15T00:34:08.628Z,7.30
2023-04-15T00:39:14.178Z,7.33
2023-04-15T00:44:19.646Z,7.33
2023-04-15T00:49:24.977Z,7.32
2023-04-15T00:54:30.295Z,7.31
2023-04-15T00:59:36.144Z,7.32
2023-04-15T01:04:42.189Z,7.33
2023-04-15T01:09:48.086Z,7.36
2023-04-15T01:14:53.751Z,7.34
2023-04-15T01:19:59.234Z,7.34
2023-04-15T01:25:13.159Z,7.34
2023-04-15T01:30:18.563Z,7.35
2023-04-15T01:35:24.359Z,7.37
2023-04-15T01:40:29.940Z,7.38
2023-04-15T01:45:35.269Z,7.37
2023-04-15T01:50:40.666Z,7.35
2023-04-15T01:55:46.033Z,7.37
2023-04-15T02:00:51.541Z,7.39
2023-04-15T02:05:56.940Z,7.42
2023-04-15T02:11:02.311Z,7.44
2023-04-15T02:16:17.643Z,7.44
2023-04-15T02:21:22.991Z,7.44
2023-04-15T02:26:28.774Z,7.46
2023-04-15T02:31:37.009Z,7.47
2023-04-15T02:36:42.445Z,7.48
2023-04-15T02:41:51.907Z,7.48
2023-04-15T02:46:58.343Z,7.45
2023-04-15T02:52:03.632Z,7.43
2023-04-15T02:57:09.055Z,7.44
2023-04-15T03:02:14.501Z,7.47
2023-04-15T03:07:20.277Z,7.48
2023-04-15T03:12:25.911Z,7.49
2023-04-15T03:17:31.247Z,7.51
2023-04-15T03:22:36.618Z,7.53
2023-04-15T03:27:42.020Z,7.53
2023-04-15T03:32:47.527Z,7.54
2023-04-15T03:37:52.956Z,7.57
2023-04-15T03:42:58.333Z,7.59
2023-04-15T03:48:16.541Z,7.60
2023-04-15T03:53:23.049Z,7.58
2023-04-15T03:58:28.350Z,7.59
2023-04-15T04:03:34.002Z,7.60
2023-04-15T04:08:39.747Z,7.61
2023-04-15T04:13:45.079Z,7.62
2023-04-15T04:18:50.390Z,7.63
2023-04-15T04:23:56.786Z,7.65
2023-04-15T04:29:02.244Z,7.68
2023-04-15T04:34:07.790Z,7.68
2023-04-15T04:39:13.030Z,7.71
2023-04-15T04:44:18.314Z,7.73
2023-04-15T04:49:23.536Z,7.74
2023-04-15T04:54:28.992Z,7.76
2023-04-15T04:59:34.331Z,7.77
2023-04-15T05:04:39.645Z,7.81
2023-04-15T05:09:44.877Z,7.84
2023-04-15T05:14:50.238Z,7.87
2023-04-15T05:19:55.836Z,7.91
2023-04-15T05:25:01.200Z,7.95
2023-04-15T05:30:08.870Z,8.00
2023-04-15T05:35:14.292Z,8.05
2023-04-15T05:40:20.150Z,8.08
2023-04-15T05:45:25.549Z,8.12
2023-04-15T05:50:31.296Z,8.19
2023-04-15T05:55:36.919Z,8.25
2023-04-15T06:00:42.369Z,8.33
2023-04-15T06:05:47.647Z,8.43
2023-04-15T06:10:53.004Z,8.52
2023-04-15T06:15:58.545Z,8.65
2023-04-15T06:21:04.490Z,8.78
2023-04-15T06:26:09.936Z,8.95
2023-04-15T06:31:16.047Z,9.14
2023-04-15T06:36:21.707Z,9.28
2023-04-15T06:41:26.969Z,9.38
2023-04-15T06:46:32.689Z,9.52
2023-04-15T06:51:38.058Z,9.74
2023-04-15T06:56:43.425Z,9.93
2023-04-15T07:01:48.691Z,10.01
2023-04-15T07:06:55.563Z,10.05
2023-04-15T07:12:00.891Z,10.02
2023-04-15T07:17:06.753Z,9.96
2023-04-15T07:22:12.123Z,9.96
2023-04-15T07:27:18.016Z,9.93
2023-04-15T07:32:23.255Z,9.88
2023-04-15T07:37:28.617Z,9.87
2023-04-15T07:42:34.240Z,9.92
2023-04-15T07:47:40.793Z,9.92
2023-04-15T07:52:46.470Z,9.92
2023-04-15T07:57:52.012Z,9.91
2023-04-15T08:02:59.656Z,9.87
2023-04-15T08:08:05.191Z,9.83
2023-04-15T08:13:10.952Z,9.77
2023-04-15T08:18:16.438Z,9.75
2023-04-15T08:23:21.701Z,9.68
2023-04-15T08:28:27.182Z,9.62
2023-04-15T08:33:32.564Z,9.59
2023-04-15T08:38:38.067Z,9.66
2023-04-15T08:43:51.798Z,9.76
2023-04-15T08:48:59.974Z,9.87
2023-04-15T08:54:09.629Z,9.90
2023-04-15T08:59:18.334Z,9.90
2023-04-15T09:09:57.826Z,9.90
2023-04-15T09:15:04.149Z,9.91
2023-04-15T09:20:15.040Z,10.02
2023-04-15T09:25:32.764Z,10.11
2023-04-15T09:30:43.262Z,10.16
2023-04-15T09:35:59.088Z,10.20
2023-04-15T09:41:16.891Z,10.24
2023-04-15T09:46:40.293Z,10.24
2023-04-15T09:51:57.606Z,10.19
2023-04-15T09:57:10.866Z,10.28
2023-04-15T10:02:18.870Z,10.33
2023-04-15T10:07:25.687Z,10.47
2023-04-15T10:12:33.557Z,10.58
2023-04-15T10:17:42.512Z,10.53
2023-04-15T10:22:48.668Z,10.35
2023-04-15T10:27:54.264Z,10.28
2023-04-15T10:33:00.221Z,10.27
2023-04-15T10:38:35.663Z,10.34
2023-04-15T10:43:45.522Z,10.35
2023-04-15T10:48:52.682Z,10.34
2023-04-15T10:54:00.005Z,10.36
2023-04-15T10:59:07.469Z,10.40
2023-04-15T11:04:12.849Z,10.34
2023-04-15T11:09:34.453Z,10.37
2023-04-15T11:14:43.427Z,10.40
2023-04-15T11:19:48.928Z,10.40
2023-04-15T11:24:54.561Z,10.33
2023-04-15T11:29:59.988Z,10.25
2023-04-15T11:35:06.239Z,10.23
2023-04-15T11:40:12.595Z,10.27
2023-04-15T11:45:18.387Z,10.29
2023-04-15T11:50:24.944Z,10.25
2023-04-15T11:55:31.465Z,10.17
2023-04-15T12:00:38.139Z,10.15
2023-04-15T12:06:04.827Z,10.12
2023-04-15T12:11:10.377Z,10.07
2023-04-15T12:16:19.558Z,10.09
2023-04-15T12:21:26.576Z,10.11
2023-04-15T12:26:34.266Z,10.17
2023-04-15T12:31:49.645Z,10.24
2023-04-15T12:36:55.851Z,10.26
2023-04-15T12:42:01.652Z,10.30
2023-04-15T12:47:08.871Z,10.30
2023-04-15T12:52:15.128Z,10.24
2023-04-15T12:57:20.527Z,10.27
2023-04-15T13:02:28.596Z,10.35
2023-04-15T13:07:34.141Z,10.38
2023-04-15T13:12:39.493Z,10.37
2023-04-15T13:17:44.774Z,10.36
2023-04-15T13:22:50.418Z,10.36
2023-04-15T13:27:55.894Z,10.33
2023-04-15T13:33:01.285Z,10.31
2023-04-15T13:38:06.684Z,10.29
2023-04-15T13:43:12.247Z,10.25
2023-04-15T13:48:17.728Z,10.26
2023-04-15T13:53:33.863Z,10.28
2023-04-15T13:58:44.677Z,10.27
2023-04-15T14:03:50.100Z,10.22
2023-04-15T14:08:56.105Z,10.23
2023-04-15T14:14:01.381Z,10.24
2023-04-15T14:19:07.017Z,10.21
2023-04-15T14:24:12.783Z,10.22
2023-04-15T14:29:18.189Z,10.21
2023-04-15T14:34:25.328Z,10.16
2023-04-15T14:39:30.831Z,10.15
2023-04-15T14:44:36.176Z,10.12
2023-04-15T14:49:41.618Z,10.11
2023-04-15T14:54:46.951Z,10.13
2023-04-15T14:59:56.557Z,10.16
2023-04-15T15:05:02.729Z,10.20
2023-04-15T15:10:10.672Z,10.23
2023-04-15T15:15:28.184Z,10.22
2023-04-15T15:20:35.414Z,10.19
2023-04-15T15:25:40.792Z,10.16
2023-04-15T15:30:46.215Z,10.12
2023-04-15T15:35:51.972Z,10.11
2023-04-15T15:40:57.285Z,10.10
2023-04-15T15:46:03.768Z,10.01
2023-04-15T15:51:10.902Z,10.00
2023-04-15T15:56:16.294Z,10.00
2023-04-15T16:01:21.934Z,10.01
2023-04-15T16:06:27.411Z,10.03
2023-04-15T16:11:32.713Z,10.01
2023-04-15T16:16:38.422Z,10.01
2023-04-15T16:21:44.661Z,9.99
2023-04-15T16:26:50.633Z,9.99
2023-04-15T16:31:56.460Z,9.97
2023-04-15T16:37:02.621Z,9.94
2023-04-15T16:42:08.065Z,9.92
2023-04-15T16:47:13.368Z,9.90
2023-04-15T16:52:18.750Z,9.86
2023-04-15T16:57:24.668Z,9.83
2023-04-15T17:02:36.859Z,9.84
2023-04-15T17:07:42.457Z,9.85
2023-04-15T17:12:47.748Z,9.84
2023-04-15T17:17:53.283Z,9.81
2023-04-15T17:22:58.634Z,9.82
2023-04-15T17:28:04.325Z,9.83
2023-04-15T17:33:50.555Z,9.81
2023-04-15T17:38:34.947Z,9.77
2023-04-15T17:43:40.392Z,9.73
2023-04-15T17:48:45.829Z,9.70
2023-04-15T17:53:51.463Z,9.69
2023-04-15T17:58:58.341Z,9.66
2023-04-15T18:04:04.004Z,9.67
2023-04-15T18:09:09.843Z,9.67
2023-04-15T18:14:23.532Z,9.65
2023-04-15T18:19:38.772Z,9.65
2023-04-15T18:24:44.365Z,9.64
2023-04-15T18:29:50.637Z,9.67
2023-04-15T18:34:56.425Z,9.67
2023-04-15T18:40:01.873Z,9.62
2023-04-15T18:45:08.709Z,9.60
2023-04-15T18:50:14.090Z,9.57
2023-04-15T18:55:19.638Z,9.52
2023-04-15T19:00:25.264Z,9.50
2023-04-15T19:05:31.153Z,9.49
2023-04-15T19:10:36.770Z,9.49
2023-04-15T19:15:42.240Z,9.47
2023-04-15T19:20:50.197Z,9.48
2023-04-15T19:25:57.050Z,9.47
2023-04-15T19:31:02.449Z,9.46
2023-04-15T19:36:08.533Z,9.43
2023-04-15T19:41:14.500Z,9.41
2023-04-15T19:46:20.432Z,9.41
2023-04-15T19:51:26.772Z,9.37
2023-04-15T19:56:34.248Z,9.38
2023-04-15T20:01:40.098Z,9.37
2023-04-15T20:06:45.490Z,9.35
2023-04-15T20:12:46.906Z,9.34
2023-04-15T20:17:16.494Z,9.34
2023-04-15T20:22:22.055Z,9.34
2023-04-15T20:27:27.604Z,9.33
2023-04-15T20:32:35.927Z,9.30
2023-04-15T20:37:45.043Z,9.29
2023-04-15T20:42:50.586Z,9.28
2023-04-15T20:47:56.561Z,9.28
2023-04-15T20:53:02.490Z,9.27
2023-04-15T20:58:08.150Z,9.27
2023-04-15T21:03:13.888Z,9.27
2023-04-15T21:08:19.421Z,9.26
2023-04-15T21:13:25.640Z,9.24
2023-04-15T21:18:31.412Z,9.23
2023-04-15T21:23:36.778Z,9.23
2023-04-15T21:28:42.324Z,9.21
2023-04-15T21:33:47.970Z,9.19
2023-04-15T21:38:53.256Z,9.20
2023-04-15T21:43:58.691Z,9.19
2023-04-15T21:49:04.613Z,9.19
2023-04-15T21:54:10.320Z,9.19
2023-04-15T21:59:15.567Z,9.20
2023-04-15T22:04:21.091Z,9.21
2023-04-15T22:09:26.506Z,9.20
2023-04-15T22:14:32.430Z,9.20
2023-04-15T22:19:37.893Z,9.19
2023-04-15T22:24:43.149Z,9.19
2023-04-15T22:29:48.780Z,9.16
2023-04-15T22:34:54.258Z,9.12
2023-04-15T22:39:59.823Z,9.11
2023-04-15T22:45:06.501Z,9.12
2023-04-15T22:50:12.320Z,9.12
2023-04-15T22:55:18.144Z,9.14
2023-04-15T23:00:23.509Z,9.14
2023-04-15T23:05:28.883Z,9.14
2023-04-15T23:10:34.642Z,9.13
2023-04-15T23:15:39.910Z,9.13
2023-04-15T23:20:45.861Z,9.13
2023-04-15T23:25:51.155Z,9.13
2023-04-15T23:30:57.971Z,9.14
2023-04-15T23:36:05.003Z,9.13
2023-04-15T23:41:11.913Z,9.14
2023-04-15T23:46:17.273Z,9.14
2023-04-15T23:51:22.908Z,9.14
2023-04-15T23:56:28.189Z,9.12
